CheckWX is a tool to help pilots better visualize weather data.  It is not intended as a substitute for an official pre-flight weather briefing.

07:12:00 UTC

LFMT TAF
Montpellier-Méditerranée Airport
Montpellier/Méditerranée, France
TAF LFMT 200200Z 2003/2103 VRB05KT 9999 SCT010 TEMPO 2003/2005 BKN008 PROB40 TEMPO 2003/2007 TSRA SCT008 BKN070CB BECMG 2008/2010 16010KT CAVOK PROB40 TEMPO 2016/2024 VRB15G25KT TSRA BKN070CB BECMG 2019/2022 36010KT

Jun-20@
03:00 UTC

Jun-20 @ 03:00 UTC

Jun-20@
08:00 UTC

Jun-20 @ 08:00 UTC

TAF LFMT 200200Z 2003/2103 VRB05KT 9999 SCT010
Wind
  • Variable at 5 KTS
Cloud Levels
  • Scattered at 1,000' AGL

Jun-20@
03:00 UTC

Jun-20 @ 03:00 UTC

Jun-20@
05:00 UTC

Jun-20 @ 05:00 UTC

TEMPO 2003/2005 BKN008

Expired

Cloud Levels
  • Broken at 800' AGL

Jun-20@
03:00 UTC

Jun-20 @ 03:00 UTC

Jun-20@
07:00 UTC

Jun-20 @ 07:00 UTC

PROB40 TEMPO 2003/2007 TSRA SCT008 BKN070CB

Expired

Conditions
Thunderstorm, Rain
Cloud Levels
  • Scattered at 800' AGL
  • Broken at 7,000' AGL

Jun-20@
08:00 UTC

Jun-20 @ 08:00 UTC

Jun-20@
19:00 UTC

Jun-20 @ 19:00 UTC

BECMG 2008/2010 16010KT CAVOK

Becoming

Becoming Conditions expected by Thu, Jun 20, 2019 @ 10:00 UTC

Wind
  • 160° at 10 KTS
Conditions
No significant weather
Cloud Levels
  • No significant clouds

Jun-20@
16:00 UTC

Jun-20 @ 16:00 UTC

Jun-21@
00:00 UTC

Jun-21 @ 00:00 UTC

PROB40 TEMPO 2016/2024 VRB15G25KT TSRA BKN070CB

Temporary - 40% Likelihood

Temporary - 40% Likelihood during this time.

Wind
  • Variable at 15 KTS
  • {Gusting to 25 KTS
Conditions
Thunderstorm, Rain
Cloud Levels
  • Broken at 7,000' AGL

Jun-20@
19:00 UTC

Jun-20 @ 19:00 UTC

Jun-21@
03:00 UTC

Jun-21 @ 03:00 UTC

BECMG 2019/2022 36010KT

Becoming

Becoming Conditions expected by Thu, Jun 20, 2019 @ 22:00 UTC

Wind
  • 360° at 10 KTS
Conditions
No significant weather
Cloud Levels
  • No significant clouds